sensor_id;sensor_type;location;lat;lon;timestamp;pressure;altitude;pressure_sealevel;temperature;humidity
5283;BME280;15376;48.540;9.268;2023-06-26T00:01:30;97442.13;;;17.56;97.75
5283;BME280;15376;48.540;9.268;2023-06-26T00:03:59;97435.66;;;17.45;98.92
5283;BME280;15376;48.540;9.268;2023-06-26T00:06:25;97454.81;;;17.19;100.00
5283;BME280;15376;48.540;9.268;2023-06-26T00:08:54;97385.19;;;16.76;100.00
5283;BME280;15376;48.540;9.268;2023-06-26T00:11:21;97437.06;;;17.18;100.00
5283;BME280;15376;48.540;9.268;2023-06-26T00:13:46;97435.88;;;16.95;100.00
5283;BME280;15376;48.540;9.268;2023-06-26T00:16:12;97434.31;;;16.88;100.00
5283;BME280;15376;48.540;9.268;2023-06-26T00:18:37;97455.94;;;16.93;100.00
5283;BME280;15376;48.540;9.268;2023-06-26T00:21:03;97454.81;;;16.82;100.00
5283;BME280;15376;48.540;9.268;2023-06-26T00:23:28;97457.88;;;16.67;100.00
5283;BME280;15376;48.540;9.268;2023-06-26T00:25:56;97465.84;;;16.49;100.00
5283;BME280;15376;48.540;9.268;2023-06-26T00:28:21;97467.72;;;16.49;100.00
5283;BME280;15376;48.540;9.268;2023-06-26T00:30:46;97465.53;;;16.64;100.00
5283;BME280;15376;48.540;9.268;2023-06-26T00:33:12;97456.75;;;16.75;100.00
5283;BME280;15376;48.540;9.268;2023-06-26T00:35:37;97448.41;;;16.65;100.00
5283;BME280;15376;48.540;9.268;2023-06-26T00:38:02;97383.25;;;16.40;100.00
5283;BME280;15376;48.540;9.268;2023-06-26T00:40:27;97455.22;;;16.61;100.00
5283;BME280;15376;48.540;9.268;2023-06-26T00:42:53;97449.22;;;16.41;100.00
5283;BME280;15376;48.540;9.268;2023-06-26T00:45:19;97443.75;;;16.54;100.00
5283;BME280;15376;48.540;9.268;2023-06-26T00:47:44;97454.59;;;16.84;100.00
5283;BME280;15376;48.540;9.268;2023-06-26T00:50:09;97453.84;;;16.95;100.00
5283;BME280;15376;48.540;9.268;2023-06-26T00:52:35;97434.63;;;16.80;99.78
5283;BME280;15376;48.540;9.268;2023-06-26T00:55:01;97455.72;;;17.13;98.13
5283;BME280;15376;48.540;9.268;2023-06-26T00:57:27;97456.16;;;16.91;100.00
5283;BME280;15376;48.540;9.268;2023-06-26T00:59:53;97448.84;;;16.80;100.00
5283;BME280;15376;48.540;9.268;2023-06-26T01:02:18;97435.00;;;16.83;100.00
5283;BME280;15376;48.540;9.268;2023-06-26T01:04:49;97451.97;;;16.95;99.46
5283;BME280;15376;48.540;9.268;2023-06-26T01:07:15;97452.44;;;16.92;98.67
5283;BME280;15376;48.540;9.268;2023-06-26T01:09:41;97454.06;;;16.93;99.58
5283;BME280;15376;48.540;9.268;2023-06-26T01:12:07;97444.16;;;16.94;97.47
5283;BME280;15376;48.540;9.268;2023-06-26T01:14:34;97454.28;;;17.10;97.98
5283;BME280;15376;48.540;9.268;2023-06-26T01:17:01;97443.19;;;17.07;97.90
5283;BME280;15376;48.540;9.268;2023-06-26T01:19:28;97449.78;;;17.22;97.29
5283;BME280;15376;48.540;9.268;2023-06-26T01:22:16;97441.44;;;17.30;97.05
5283;BME280;15376;48.540;9.268;2023-06-26T01:25:12;97447.50;;;17.08;99.69
5283;BME280;15376;48.540;9.268;2023-06-26T01:27:44;97445.50;;;16.85;96.96
5283;BME280;15376;48.540;9.268;2023-06-26T01:30:11;97437.31;;;16.98;98.24
5283;BME280;15376;48.540;9.268;2023-06-26T01:32:37;97437.97;;;16.93;96.71
5283;BME280;15376;48.540;9.268;2023-06-26T01:35:06;97446.03;;;17.12;97.64
5283;BME280;15376;48.540;9.268;2023-06-26T01:37:32;97419.72;;;16.84;98.90
5283;BME280;15376;48.540;9.268;2023-06-26T01:39:57;97437.63;;;16.72;100.00
5283;BME280;15376;48.540;9.268;2023-06-26T01:42:22;97431.94;;;16.80;100.00
5283;BME280;15376;48.540;9.268;2023-06-26T01:44:48;97428.13;;;16.87;99.98
5283;BME280;15376;48.540;9.268;2023-06-26T01:47:16;97427.69;;;16.90;98.46
5283;BME280;15376;48.540;9.268;2023-06-26T01:50:01;97427.97;;;17.00;97.50
5283;BME280;15376;48.540;9.268;2023-06-26T01:58:04;97413.28;;;16.05;100.00
5283;BME280;15376;48.540;9.268;2023-06-26T02:00:30;97428.25;;;15.88;100.00
5283;BME280;15376;48.540;9.268;2023-06-26T02:02:57;97431.56;;;15.52;100.00
5283;BME280;15376;48.540;9.268;2023-06-26T02:05:23;97421.22;;;15.24;100.00
5283;BME280;15376;48.540;9.268;2023-06-26T02:07:49;97424.50;;;15.26;100.00
5283;BME280;15376;48.540;9.268;2023-06-26T02:10:14;97421.66;;;15.21;100.00
5283;BME280;15376;48.540;9.268;2023-06-26T02:12:40;97429.41;;;15.35;100.00
5283;BME280;15376;48.540;9.268;2023-06-26T02:15:06;97436.81;;;15.33;100.00
5283;BME280;15376;48.540;9.268;2023-06-26T02:17:32;97406.47;;;15.15;100.00
5283;BME280;15376;48.540;9.268;2023-06-26T02:19:57;97432.06;;;15.35;100.00
5283;BME280;15376;48.540;9.268;2023-06-26T02:22:22;97437.47;;;15.22;100.00
5283;BME280;15376;48.540;9.268;2023-06-26T02:24:48;97438.88;;;15.31;100.00
5283;BME280;15376;48.540;9.268;2023-06-26T02:27:13;97426.13;;;15.33;100.00
5283;BME280;15376;48.540;9.268;2023-06-26T02:29:40;97438.44;;;15.41;100.00
5283;BME280;15376;48.540;9.268;2023-06-26T02:32:06;97438.56;;;15.15;100.00
5283;BME280;15376;48.540;9.268;2023-06-26T02:34:31;97429.41;;;14.84;100.00
5283;BME280;15376;48.540;9.268;2023-06-26T02:36:56;97448.75;;;14.86;100.00
5283;BME280;15376;48.540;9.268;2023-06-26T02:39:24;97425.19;;;14.63;100.00
5283;BME280;15376;48.540;9.268;2023-06-26T02:41:49;97434.00;;;14.77;100.00
5283;BME280;15376;48.540;9.268;2023-06-26T02:44:14;97451.91;;;14.70;100.00
5283;BME280;15376;48.540;9.268;2023-06-26T02:46:40;97443.47;;;14.40;100.00
5283;BME280;15376;48.540;9.268;2023-06-26T02:49:06;97455.19;;;14.65;100.00
5283;BME280;15376;48.540;9.268;2023-06-26T02:51:32;97418.66;;;14.26;100.00
5283;BME280;15376;48.540;9.268;2023-06-26T02:53:58;97453.59;;;14.31;100.00
5283;BME280;15376;48.540;9.268;2023-06-26T02:56:23;97446.19;;;14.14;100.00
5283;BME280;15376;48.540;9.268;2023-06-26T02:58:49;97456.84;;;14.40;100.00
5283;BME280;15376;48.540;9.268;2023-06-26T03:01:14;97448.56;;;14.81;100.00
5283;BME280;15376;48.540;9.268;2023-06-26T03:03:40;97444.94;;;14.49;100.00
5283;BME280;15376;48.540;9.268;2023-06-26T03:06:07;97455.22;;;14.32;100.00
5283;BME280;15376;48.540;9.268;2023-06-26T03:08:33;97465.09;;;14.12;100.00
5283;BME280;15376;48.540;9.268;2023-06-26T03:10:58;97464.88;;;14.07;100.00
5283;BME280;15376;48.540;9.268;2023-06-26T03:13:24;97466.75;;;14.33;100.00
5283;BME280;15376;48.540;9.268;2023-06-26T03:15:49;97464.66;;;14.61;100.00
5283;BME280;15376;48.540;9.268;2023-06-26T03:18:15;97444.25;;;14.80;100.00
5283;BME280;15376;48.540;9.268;2023-06-26T03:20:40;97434.13;;;14.89;100.00
5283;BME280;15376;48.540;9.268;2023-06-26T03:23:05;97431.19;;;15.10;100.00
5283;BME280;15376;48.540;9.268;2023-06-26T03:25:31;97432.94;;;15.29;100.00
5283;BME280;15376;48.540;9.268;2023-06-26T03:27:57;97441.53;;;15.38;100.00
5283;BME280;15376;48.540;9.268;2023-06-26T03:30:22;97455.44;;;15.53;100.00
5283;BME280;15376;48.540;9.268;2023-06-26T03:32:47;97462.16;;;15.69;100.00
5283;BME280;15376;48.540;9.268;2023-06-26T03:35:13;97436.22;;;15.70;100.00
5283;BME280;15376;48.540;9.268;2023-06-26T03:37:38;97454.63;;;15.91;100.00
5283;BME280;15376;48.540;9.268;2023-06-26T03:40:06;97444.69;;;15.98;100.00
5283;BME280;15376;48.540;9.268;2023-06-26T03:42:32;97451.09;;;16.15;100.00
5283;BME280;15376;48.540;9.268;2023-06-26T03:44:57;97443.06;;;16.15;100.00
5283;BME280;15376;48.540;9.268;2023-06-26T03:47:23;97455.50;;;16.34;100.00
5283;BME280;15376;48.540;9.268;2023-06-26T03:49:48;97454.66;;;16.34;100.00
5283;BME280;15376;48.540;9.268;2023-06-26T03:52:13;97464.03;;;16.43;100.00
5283;BME280;15376;48.540;9.268;2023-06-26T03:54:39;97464.00;;;16.50;100.00
5283;BME280;15376;48.540;9.268;2023-06-26T03:57:04;97451.03;;;16.47;100.00
5283;BME280;15376;48.540;9.268;2023-06-26T03:59:29;97460.22;;;16.57;100.00
5283;BME280;15376;48.540;9.268;2023-06-26T04:01:55;97458.50;;;16.63;100.00
5283;BME280;15376;48.540;9.268;2023-06-26T04:04:20;97446.78;;;16.64;100.00
5283;BME280;15376;48.540;9.268;2023-06-26T04:06:45;97454.97;;;16.69;100.00
5283;BME280;15376;48.540;9.268;2023-06-26T04:09:11;97451.03;;;16.72;100.00
5283;BME280;15376;48.540;9.268;2023-06-26T04:11:36;97451.47;;;16.69;99.11
5283;BME280;15376;48.540;9.268;2023-06-26T04:14:02;97447.91;;;16.75;99.76
5283;BME280;15376;48.540;9.268;2023-06-26T04:16:28;97463.66;;;16.83;100.00
5283;BME280;15376;48.540;9.268;2023-06-26T04:18:53;97451.63;;;16.74;100.00
5283;BME280;15376;48.540;9.268;2023-06-26T04:21:20;97444.09;;;16.64;100.00
5283;BME280;15376;48.540;9.268;2023-06-26T04:23:46;97446.94;;;16.69;100.00
5283;BME280;15376;48.540;9.268;2023-06-26T04:26:12;97443.56;;;16.74;100.00
5283;BME280;15376;48.540;9.268;2023-06-26T04:28:40;97461.16;;;16.88;100.00
5283;BME280;15376;48.540;9.268;2023-06-26T04:31:05;97436.50;;;16.79;99.18
5283;BME280;15376;48.540;9.268;2023-06-26T04:33:31;97458.31;;;17.01;97.39
5283;BME280;15376;48.540;9.268;2023-06-26T04:35:56;97453.91;;;17.07;100.00
5283;BME280;15376;48.540;9.268;2023-06-26T04:38:22;97442.97;;;17.08;100.00
5283;BME280;15376;48.540;9.268;2023-06-26T04:40:48;97462.31;;;17.28;99.85
5283;BME280;15376;48.540;9.268;2023-06-26T04:43:14;97442.25;;;17.31;98.62
5283;BME280;15376;48.540;9.268;2023-06-26T04:45:40;97453.41;;;17.46;99.65
5283;BME280;15376;48.540;9.268;2023-06-26T04:48:05;97452.97;;;17.49;98.50
5283;BME280;15376;48.540;9.268;2023-06-26T04:50:34;97449.47;;;17.60;97.50
5283;BME280;15376;48.540;9.268;2023-06-26T04:53:00;97464.47;;;17.68;97.91
5283;BME280;15376;48.540;9.268;2023-06-26T04:55:26;97451.66;;;17.70;94.14
5283;BME280;15376;48.540;9.268;2023-06-26T04:57:51;97368.13;;;17.30;93.44
5283;BME280;15376;48.540;9.268;2023-06-26T05:00:17;97455.22;;;17.94;94.15
5283;BME280;15376;48.540;9.268;2023-06-26T05:02:43;97456.63;;;18.08;94.62
5283;BME280;15376;48.540;9.268;2023-06-26T05:05:08;97452.69;;;18.22;94.40
5283;BME280;15376;48.540;9.268;2023-06-26T05:07:34;97452.13;;;18.32;93.13
5283;BME280;15376;48.540;9.268;2023-06-26T05:09:59;97432.81;;;18.23;92.18
5283;BME280;15376;48.540;9.268;2023-06-26T05:12:24;97449.31;;;18.50;92.71
5283;BME280;15376;48.540;9.268;2023-06-26T05:14:52;97436.78;;;18.56;92.22
5283;BME280;15376;48.540;9.268;2023-06-26T05:17:18;97451.31;;;18.78;91.14
5283;BME280;15376;48.540;9.268;2023-06-26T05:19:43;97443.31;;;18.95;89.98
5283;BME280;15376;48.540;9.268;2023-06-26T05:22:09;97418.75;;;18.91;89.42
5283;BME280;15376;48.540;9.268;2023-06-26T05:24:35;97440.31;;;19.20;88.05
5283;BME280;15376;48.540;9.268;2023-06-26T05:27:01;97445.34;;;19.28;87.13
5283;BME280;15376;48.540;9.268;2023-06-26T05:29:28;97430.78;;;19.41;86.99
5283;BME280;15376;48.540;9.268;2023-06-26T05:31:56;97426.78;;;19.43;86.30
5283;BME280;15376;48.540;9.268;2023-06-26T05:34:22;97415.53;;;19.46;87.18
5283;BME280;15376;48.540;9.268;2023-06-26T05:36:50;97443.72;;;19.84;86.98
5283;BME280;15376;48.540;9.268;2023-06-26T05:39:16;97435.16;;;19.87;86.74
5283;BME280;15376;48.540;9.268;2023-06-26T05:41:44;97445.28;;;20.13;84.04
5283;BME280;15376;48.540;9.268;2023-06-26T05:44:09;97463.84;;;20.26;82.87
5283;BME280;15376;48.540;9.268;2023-06-26T05:46:35;97452.25;;;20.26;82.55
5283;BME280;15376;48.540;9.268;2023-06-26T05:49:00;97457.06;;;20.41;80.98
5283;BME280;15376;48.540;9.268;2023-06-26T05:51:27;97455.34;;;20.51;80.10
5283;BME280;15376;48.540;9.268;2023-06-26T05:53:52;97458.78;;;20.47;79.94
5283;BME280;15376;48.540;9.268;2023-06-26T05:56:18;97468.44;;;20.59;80.16
5283;BME280;15376;48.540;9.268;2023-06-26T05:58:44;97466.16;;;20.68;80.80
5283;BME280;15376;48.540;9.268;2023-06-26T06:01:10;97451.50;;;20.64;79.04
5283;BME280;15376;48.540;9.268;2023-06-26T06:03:35;97459.75;;;20.74;78.77
5283;BME280;15376;48.540;9.268;2023-06-26T06:06:01;97444.69;;;20.78;78.91
5283;BME280;15376;48.540;9.268;2023-06-26T06:08:26;97455.91;;;21.09;78.59
5283;BME280;15376;48.540;9.268;2023-06-26T06:10:51;97463.19;;;21.30;78.04
5283;BME280;15376;48.540;9.268;2023-06-26T06:13:17;97448.81;;;21.46;77.17
5283;BME280;15376;48.540;9.268;2023-06-26T06:15:42;97435.69;;;21.60;76.86
5283;BME280;15376;48.540;9.268;2023-06-26T06:18:08;97453.56;;;21.88;75.83
5283;BME280;15376;48.540;9.268;2023-06-26T06:20:34;97452.66;;;22.04;74.14
5283;BME280;15376;48.540;9.268;2023-06-26T06:23:00;97444.56;;;22.09;73.82
5283;BME280;15376;48.540;9.268;2023-06-26T06:25:25;97449.69;;;22.38;74.28
5283;BME280;15376;48.540;9.268;2023-06-26T06:27:50;97459.53;;;22.54;72.80
5283;BME280;15376;48.540;9.268;2023-06-26T06:30:16;97445.00;;;22.65;72.51
5283;BME280;15376;48.540;9.268;2023-06-26T06:32:41;97460.38;;;22.97;71.12
5283;BME280;15376;48.540;9.268;2023-06-26T06:35:07;97455.00;;;23.07;69.46
5283;BME280;15376;48.540;9.268;2023-06-26T06:37:36;97445.69;;;22.87;67.71
5283;BME280;15376;48.540;9.268;2023-06-26T06:40:01;97456.41;;;23.14;67.26
5283;BME280;15376;48.540;9.268;2023-06-26T06:42:28;97442.06;;;23.24;66.55
5283;BME280;15376;48.540;9.268;2023-06-26T06:44:53;97451.94;;;23.50;67.42
5283;BME280;15376;48.540;9.268;2023-06-26T06:47:19;97374.28;;;23.09;65.45
5283;BME280;15376;48.540;9.268;2023-06-26T06:49:44;97452.00;;;23.66;62.75
5283;BME280;15376;48.540;9.268;2023-06-26T06:52:09;97461.75;;;23.61;63.38
5283;BME280;15376;48.540;9.268;2023-06-26T06:54:54;97454.75;;;23.81;61.53
5283;BME280;15376;48.540;9.268;2023-06-26T06:57:20;97456.94;;;23.94;63.03
5283;BME280;15376;48.540;9.268;2023-06-26T06:59:46;97463.44;;;24.08;62.26
5283;BME280;15376;48.540;9.268;2023-06-26T07:02:12;97454.78;;;24.21;61.40
5283;BME280;15376;48.540;9.268;2023-06-26T07:04:38;97443.94;;;24.21;61.60
5283;BME280;15376;48.540;9.268;2023-06-26T07:07:03;97452.88;;;24.68;61.26
5283;BME280;15376;48.540;9.268;2023-06-26T07:09:29;97448.78;;;24.96;60.16
5283;BME280;15376;48.540;9.268;2023-06-26T07:11:54;97435.16;;;25.01;60.86
5283;BME280;15376;48.540;9.268;2023-06-26T07:14:19;97449.72;;;25.30;58.25
5283;BME280;15376;48.540;9.268;2023-06-26T07:16:45;97450.28;;;25.27;56.99
5283;BME280;15376;48.540;9.268;2023-06-26T07:19:10;97454.88;;;25.32;57.37
5283;BME280;15376;48.540;9.268;2023-06-26T07:21:35;97434.63;;;25.04;58.43
5283;BME280;15376;48.540;9.268;2023-06-26T07:24:01;97431.84;;;25.19;57.99
5283;BME280;15376;48.540;9.268;2023-06-26T07:26:26;97448.03;;;25.49;56.81
5283;BME280;15376;48.540;9.268;2023-06-26T07:28:52;97453.31;;;25.80;56.07
5283;BME280;15376;48.540;9.268;2023-06-26T07:31:18;97451.66;;;25.84;55.67
5283;BME280;15376;48.540;9.268;2023-06-26T07:33:43;97451.69;;;26.18;56.40
5283;BME280;15376;48.540;9.268;2023-06-26T07:36:09;97446.97;;;26.34;56.59
5283;BME280;15376;48.540;9.268;2023-06-26T07:38:34;97446.13;;;26.38;54.18
5283;BME280;15376;48.540;9.268;2023-06-26T07:40:59;97459.72;;;26.38;54.13
5283;BME280;15376;48.540;9.268;2023-06-26T07:43:25;97459.41;;;26.40;54.84
5283;BME280;15376;48.540;9.268;2023-06-26T07:45:50;97452.88;;;26.41;52.92
5283;BME280;15376;48.540;9.268;2023-06-26T07:48:16;97450.03;;;26.56;52.96
5283;BME280;15376;48.540;9.268;2023-06-26T07:50:42;97459.25;;;26.60;51.77
5283;BME280;15376;48.540;9.268;2023-06-26T07:53:07;97455.38;;;26.66;50.85
5283;BME280;15376;48.540;9.268;2023-06-26T07:55:33;97447.41;;;26.75;51.32
5283;BME280;15376;48.540;9.268;2023-06-26T07:57:58;97464.56;;;26.75;50.46
5283;BME280;15376;48.540;9.268;2023-06-26T08:00:24;97459.13;;;26.75;51.32
5283;BME280;15376;48.540;9.268;2023-06-26T08:02:49;97476.50;;;26.79;49.91
5283;BME280;15376;48.540;9.268;2023-06-26T08:05:14;97477.44;;;26.94;49.79
5283;BME280;15376;48.540;9.268;2023-06-26T08:07:40;97449.47;;;26.83;50.15
5283;BME280;15376;48.540;9.268;2023-06-26T08:10:05;97469.38;;;27.12;49.64
5283;BME280;15376;48.540;9.268;2023-06-26T08:12:31;97467.72;;;27.35;50.04
5283;BME280;15376;48.540;9.268;2023-06-26T08:14:56;97468.19;;;27.42;48.28
5283;BME280;15376;48.540;9.268;2023-06-26T08:17:21;97469.69;;;27.53;48.94
5283;BME280;15376;48.540;9.268;2023-06-26T08:19:47;97468.03;;;27.76;47.89
5283;BME280;15376;48.540;9.268;2023-06-26T08:22:12;97459.63;;;27.73;47.89
5283;BME280;15376;48.540;9.268;2023-06-26T08:24:38;97458.97;;;27.81;47.30
5283;BME280;15376;48.540;9.268;2023-06-26T08:27:03;97460.94;;;27.56;47.67
5283;BME280;15376;48.540;9.268;2023-06-26T08:29:29;97451.63;;;27.58;48.39
5283;BME280;15376;48.540;9.268;2023-06-26T08:31:54;97454.41;;;27.95;46.56
5283;BME280;15376;48.540;9.268;2023-06-26T08:34:19;97384.97;;;27.45;45.54
5283;BME280;15376;48.540;9.268;2023-06-26T08:36:52;97453.38;;;27.91;45.52
5283;BME280;15376;48.540;9.268;2023-06-26T08:39:18;97450.88;;;27.95;46.50
5283;BME280;15376;48.540;9.268;2023-06-26T08:41:44;97450.03;;;28.13;46.15
5283;BME280;15376;48.540;9.268;2023-06-26T08:44:09;97445.38;;;28.13;46.43
5283;BME280;15376;48.540;9.268;2023-06-26T08:46:35;97450.72;;;28.24;45.94
5283;BME280;15376;48.540;9.268;2023-06-26T08:49:07;97442.97;;;28.31;45.22
5283;BME280;15376;48.540;9.268;2023-06-26T08:51:38;97452.50;;;28.47;46.53
5283;BME280;15376;48.540;9.268;2023-06-26T08:54:11;97443.53;;;28.60;46.07
5283;BME280;15376;48.540;9.268;2023-06-26T08:56:42;97449.34;;;28.72;45.28
5283;BME280;15376;48.540;9.268;2023-06-26T08:59:09;97436.44;;;28.59;44.36
5283;BME280;15376;48.540;9.268;2023-06-26T09:01:40;97448.41;;;28.63;45.03
5283;BME280;15376;48.540;9.268;2023-06-26T09:04:06;97445.34;;;28.51;45.11
5283;BME280;15376;48.540;9.268;2023-06-26T09:06:34;97419.13;;;28.50;44.05
5283;BME280;15376;48.540;9.268;2023-06-26T09:09:00;97439.75;;;28.88;42.70
5283;BME280;15376;48.540;9.268;2023-06-26T09:11:25;97429.22;;;28.96;43.28
5283;BME280;15376;48.540;9.268;2023-06-26T09:13:51;97435.63;;;29.18;44.31
5283;BME280;15376;48.540;9.268;2023-06-26T09:16:17;97431.25;;;29.31;43.60
5283;BME280;15376;48.540;9.268;2023-06-26T09:18:42;97434.91;;;29.27;41.91
5283;BME280;15376;48.540;9.268;2023-06-26T09:21:08;97421.84;;;29.10;41.85
5283;BME280;15376;48.540;9.268;2023-06-26T09:23:35;97436.94;;;29.21;42.04
5283;BME280;15376;48.540;9.268;2023-06-26T09:26:07;97407.16;;;29.06;42.68
5283;BME280;15376;48.540;9.268;2023-06-26T09:28:33;97422.34;;;29.53;42.41
5283;BME280;15376;48.540;9.268;2023-06-26T09:31:03;97426.78;;;29.35;41.36
5283;BME280;15376;48.540;9.268;2023-06-26T09:33:33;97418.44;;;29.68;41.17
5283;BME280;15376;48.540;9.268;2023-06-26T09:35:59;97425.75;;;30.08;41.29
5283;BME280;15376;48.540;9.268;2023-06-26T09:38:25;97425.06;;;30.03;41.93
5283;BME280;15376;48.540;9.268;2023-06-26T09:40:50;97406.56;;;30.08;40.99
5283;BME280;15376;48.540;9.268;2023-06-26T09:43:16;97415.63;;;30.31;41.05
5283;BME280;15376;48.540;9.268;2023-06-26T09:45:41;97418.16;;;30.05;38.30
5283;BME280;15376;48.540;9.268;2023-06-26T09:48:07;97422.31;;;30.03;38.74
5283;BME280;15376;48.540;9.268;2023-06-26T09:50:41;97426.19;;;30.02;39.22
5283;BME280;15376;48.540;9.268;2023-06-26T09:53:08;97413.63;;;30.23;38.42
5283;BME280;15376;48.540;9.268;2023-06-26T09:55:35;97415.03;;;30.21;38.60
5283;BME280;15376;48.540;9.268;2023-06-26T09:58:04;97407.44;;;30.62;37.78
5283;BME280;15376;48.540;9.268;2023-06-26T10:00:31;97387.47;;;30.70;36.61
5283;BME280;15376;48.540;9.268;2023-06-26T10:02:57;97398.50;;;31.27;37.18
5283;BME280;15376;48.540;9.268;2023-06-26T10:05:22;97401.84;;;31.81;36.31
5283;BME280;15376;48.540;9.268;2023-06-26T10:07:48;97404.13;;;31.96;35.61
5283;BME280;15376;48.540;9.268;2023-06-26T10:10:15;97398.75;;;32.00;36.04
5283;BME280;15376;48.540;9.268;2023-06-26T10:12:43;97399.41;;;32.05;36.43
5283;BME280;15376;48.540;9.268;2023-06-26T10:15:12;97418.00;;;32.17;35.53
5283;BME280;15376;48.540;9.268;2023-06-26T10:17:42;97404.91;;;32.31;35.31
5283;BME280;15376;48.540;9.268;2023-06-26T10:20:08;97402.38;;;32.73;34.59
5283;BME280;15376;48.540;9.268;2023-06-26T10:22:39;97411.56;;;33.24;34.50
5283;BME280;15376;48.540;9.268;2023-06-26T10:25:07;97392.47;;;33.27;31.82
5283;BME280;15376;48.540;9.268;2023-06-26T10:27:38;97398.28;;;32.88;32.93
5283;BME280;15376;48.540;9.268;2023-06-26T10:30:09;97407.69;;;32.23;34.74
5283;BME280;15376;48.540;9.268;2023-06-26T10:32:36;97405.72;;;33.25;32.81
5283;BME280;15376;48.540;9.268;2023-06-26T10:35:06;97409.47;;;35.12;30.99
5283;BME280;15376;48.540;9.268;2023-06-26T10:37:48;97391.41;;;36.59;29.16
5283;BME280;15376;48.540;9.268;2023-06-26T10:40:17;97416.06;;;38.51;27.34
5283;BME280;15376;48.540;9.268;2023-06-26T10:42:45;97411.25;;;39.62;23.54
5283;BME280;15376;48.540;9.268;2023-06-26T10:47:37;97425.41;;;39.80;22.95
5283;BME280;15376;48.540;9.268;2023-06-26T10:50:25;97415.09;;;40.11;22.49
5283;BME280;15376;48.540;9.268;2023-06-26T10:53:15;97419.88;;;39.31;23.15
5283;BME280;15376;48.540;9.268;2023-06-26T10:55:55;97419.63;;;39.13;23.31
5283;BME280;15376;48.540;9.268;2023-06-26T10:58:55;97424.50;;;37.30;25.02
5283;BME280;15376;48.540;9.268;2023-06-26T11:01:40;97417.69;;;36.37;26.26
5283;BME280;15376;48.540;9.268;2023-06-26T11:04:07;97417.19;;;35.42;27.72
5283;BME280;15376;48.540;9.268;2023-06-26T11:06:35;97408.31;;;34.55;28.77
5283;BME280;15376;48.540;9.268;2023-06-26T11:09:08;97412.31;;;35.64;28.00
5283;BME280;15376;48.540;9.268;2023-06-26T11:14:17;97409.22;;;37.87;24.17
5283;BME280;15376;48.540;9.268;2023-06-26T11:16:42;97395.47;;;36.49;25.92
5283;BME280;15376;48.540;9.268;2023-06-26T11:19:09;97416.00;;;35.19;28.55
5283;BME280;15376;48.540;9.268;2023-06-26T11:21:38;97415.88;;;33.42;31.01
5283;BME280;15376;48.540;9.268;2023-06-26T11:24:08;97403.09;;;32.44;32.45
5283;BME280;15376;48.540;9.268;2023-06-26T11:26:40;97422.34;;;32.44;33.31
5283;BME280;15376;48.540;9.268;2023-06-26T11:29:07;97424.13;;;34.34;31.18
5283;BME280;15376;48.540;9.268;2023-06-26T11:31:36;97427.44;;;35.79;29.63
5283;BME280;15376;48.540;9.268;2023-06-26T11:34:05;97433.19;;;36.69;28.46
5283;BME280;15376;48.540;9.268;2023-06-26T11:36:31;97441.28;;;36.75;28.22
5283;BME280;15376;48.540;9.268;2023-06-26T11:38:58;97436.03;;;34.92;29.52
5283;BME280;15376;48.540;9.268;2023-06-26T11:41:27;97433.22;;;33.42;32.65
5283;BME280;15376;48.540;9.268;2023-06-26T11:43:53;97438.75;;;34.80;31.25
5283;BME280;15376;48.540;9.268;2023-06-26T11:46:20;97447.31;;;36.36;28.81
5283;BME280;15376;48.540;9.268;2023-06-26T11:48:46;97443.53;;;37.32;27.86
5283;BME280;15376;48.540;9.268;2023-06-26T11:51:15;97432.34;;;36.97;28.18
5283;BME280;15376;48.540;9.268;2023-06-26T11:53:42;97434.66;;;36.95;28.56
5283;BME280;15376;48.540;9.268;2023-06-26T11:56:12;97446.59;;;36.67;29.05
5283;BME280;15376;48.540;9.268;2023-06-26T12:01:44;97448.00;;;36.61;29.39
5283;BME280;15376;48.540;9.268;2023-06-26T12:04:14;97455.19;;;36.34;29.11
5283;BME280;15376;48.540;9.268;2023-06-26T12:06:47;97434.25;;;37.24;28.06
5283;BME280;15376;48.540;9.268;2023-06-26T12:09:14;97447.44;;;36.84;28.06
5283;BME280;15376;48.540;9.268;2023-06-26T12:11:42;97447.28;;;37.55;26.87
5283;BME280;15376;48.540;9.268;2023-06-26T12:14:08;97438.84;;;36.73;27.90
5283;BME280;15376;48.540;9.268;2023-06-26T12:16:35;97454.97;;;37.15;28.03
5283;BME280;15376;48.540;9.268;2023-06-26T12:19:02;97455.00;;;38.16;26.74
5283;BME280;15376;48.540;9.268;2023-06-26T12:21:44;97448.50;;;37.74;26.61
5283;BME280;15376;48.540;9.268;2023-06-26T12:24:17;97445.41;;;37.44;27.00
5283;BME280;15376;48.540;9.268;2023-06-26T12:26:44;97456.66;;;37.51;27.32
5283;BME280;15376;48.540;9.268;2023-06-26T12:29:12;97449.22;;;35.43;29.64
5283;BME280;15376;48.540;9.268;2023-06-26T12:31:42;97447.72;;;35.46;29.14
5283;BME280;15376;48.540;9.268;2023-06-26T12:34:12;97444.59;;;33.91;31.22
5283;BME280;15376;48.540;9.268;2023-06-26T12:36:41;97442.13;;;32.29;33.28
5283;BME280;15376;48.540;9.268;2023-06-26T12:39:09;97450.53;;;32.32;33.64
5283;BME280;15376;48.540;9.268;2023-06-26T12:41:44;97456.56;;;33.95;32.38
5283;BME280;15376;48.540;9.268;2023-06-26T12:46:48;97444.59;;;35.48;29.28
5283;BME280;15376;48.540;9.268;2023-06-26T12:49:14;97452.38;;;35.94;29.51
5283;BME280;15376;48.540;9.268;2023-06-26T12:51:40;97433.56;;;36.40;29.26
5283;BME280;15376;48.540;9.268;2023-06-26T12:54:05;97441.78;;;36.36;28.00
5283;BME280;15376;48.540;9.268;2023-06-26T12:56:31;97452.50;;;36.82;28.49
5283;BME280;15376;48.540;9.268;2023-06-26T12:58:56;97424.59;;;37.34;28.25
5283;BME280;15376;48.540;9.268;2023-06-26T13:01:22;97409.66;;;37.89;27.35
5283;BME280;15376;48.540;9.268;2023-06-26T13:03:49;97436.50;;;38.04;27.35
5283;BME280;15376;48.540;9.268;2023-06-26T13:06:16;97425.75;;;38.19;27.14
5283;BME280;15376;48.540;9.268;2023-06-26T13:08:42;97405.44;;;38.34;26.25
5283;BME280;15376;48.540;9.268;2023-06-26T13:11:08;97430.13;;;38.20;27.33
5283;BME280;15376;48.540;9.268;2023-06-26T13:13:34;97423.41;;;36.88;28.76
5283;BME280;15376;48.540;9.268;2023-06-26T13:15:59;97410.38;;;37.35;28.45
5283;BME280;15376;48.540;9.268;2023-06-26T13:18:25;97390.25;;;36.60;29.47
5283;BME280;15376;48.540;9.268;2023-06-26T13:20:51;97426.28;;;37.07;29.00
5283;BME280;15376;48.540;9.268;2023-06-26T13:23:16;97426.56;;;37.02;29.24